sensor_id;sensor_type;location;lat;lon;timestamp;pressure;altitude;pressure_sealevel;temperature;humidity
72802;BME280;61891;55.818;37.084;2023-07-02T00:01:53;97862.41;;;17.65;65.18
72802;BME280;61891;55.818;37.084;2023-07-02T00:04:18;97868.28;;;17.62;65.58
72802;BME280;61891;55.818;37.084;2023-07-02T00:06:46;97827.78;;;17.36;65.86
72802;BME280;61891;55.818;37.084;2023-07-02T00:09:12;97859.31;;;17.51;66.14
72802;BME280;61891;55.818;37.084;2023-07-02T00:11:40;97854.69;;;17.47;66.21
72802;BME280;61891;55.818;37.084;2023-07-02T00:14:07;97812.31;;;17.22;66.41
72802;BME280;61891;55.818;37.084;2023-07-02T00:16:33;97824.38;;;17.24;66.93
72802;BME280;61891;55.818;37.084;2023-07-02T00:18:59;97857.13;;;17.48;66.70
72802;BME280;61891;55.818;37.084;2023-07-02T00:21:27;97850.13;;;17.47;66.61
72802;BME280;61891;55.818;37.084;2023-07-02T00:23:55;97851.19;;;17.46;66.71
72802;BME280;61891;55.818;37.084;2023-07-02T00:26:26;97854.56;;;17.36;66.53
72802;BME280;61891;55.818;37.084;2023-07-02T00:28:56;97866.06;;;17.37;66.88
72802;BME280;61891;55.818;37.084;2023-07-02T00:31:23;97864.13;;;17.32;67.08
72802;BME280;61891;55.818;37.084;2023-07-02T00:33:49;97866.25;;;17.30;66.84
72802;BME280;61891;55.818;37.084;2023-07-02T00:36:16;97837.00;;;17.07;66.66
72802;BME280;61891;55.818;37.084;2023-07-02T00:38:44;97877.47;;;17.27;67.20
72802;BME280;61891;55.818;37.084;2023-07-02T00:41:10;97851.19;;;17.07;67.02
72802;BME280;61891;55.818;37.084;2023-07-02T00:43:36;97875.19;;;17.19;67.65
72802;BME280;61891;55.818;37.084;2023-07-02T00:46:02;97801.94;;;16.70;66.98
72802;BME280;61891;55.818;37.084;2023-07-02T00:48:29;97838.25;;;16.83;67.18
72802;BME280;61891;55.818;37.084;2023-07-02T00:50:56;97864.19;;;16.99;67.33
72802;BME280;61891;55.818;37.084;2023-07-02T00:53:22;97820.56;;;16.65;67.04
72802;BME280;61891;55.818;37.084;2023-07-02T00:55:48;97880.00;;;17.00;67.56
72802;BME280;61891;55.818;37.084;2023-07-02T00:58:14;97879.19;;;17.00;67.88
72802;BME280;61891;55.818;37.084;2023-07-02T01:00:42;97875.38;;;16.96;68.04
72802;BME280;61891;55.818;37.084;2023-07-02T01:03:11;97826.25;;;16.68;68.50
72802;BME280;61891;55.818;37.084;2023-07-02T01:05:37;97881.94;;;17.05;68.40
72802;BME280;61891;55.818;37.084;2023-07-02T01:08:05;97882.28;;;17.08;68.07
72802;BME280;61891;55.818;37.084;2023-07-02T01:10:32;97885.75;;;17.09;68.52
72802;BME280;61891;55.818;37.084;2023-07-02T01:13:06;97790.53;;;16.46;68.22
72802;BME280;61891;55.818;37.084;2023-07-02T01:15:37;97774.25;;;16.31;68.22
72802;BME280;61891;55.818;37.084;2023-07-02T01:18:05;97816.16;;;16.59;68.37
72802;BME280;61891;55.818;37.084;2023-07-02T01:20:32;97829.63;;;16.64;68.27
72802;BME280;61891;55.818;37.084;2023-07-02T01:22:59;97854.47;;;16.76;68.91
72802;BME280;61891;55.818;37.084;2023-07-02T01:25:29;97886.41;;;16.99;68.86
72802;BME280;61891;55.818;37.084;2023-07-02T01:27:56;97894.84;;;17.08;68.71
72802;BME280;61891;55.818;37.084;2023-07-02T01:30:24;97892.72;;;17.10;68.64
72802;BME280;61891;55.818;37.084;2023-07-02T01:32:51;97848.38;;;16.81;68.48
72802;BME280;61891;55.818;37.084;2023-07-02T01:35:17;97898.66;;;17.12;69.43
72802;BME280;61891;55.818;37.084;2023-07-02T01:37:43;97893.72;;;17.04;68.66
72802;BME280;61891;55.818;37.084;2023-07-02T01:40:10;97866.88;;;16.82;68.99
72802;BME280;61891;55.818;37.084;2023-07-02T01:42:37;97906.38;;;17.08;68.52
72802;BME280;61891;55.818;37.084;2023-07-02T01:45:03;97880.16;;;16.94;68.53
72802;BME280;61891;55.818;37.084;2023-07-02T01:47:32;97858.09;;;16.87;68.53
72802;BME280;61891;55.818;37.084;2023-07-02T01:49:59;97894.84;;;17.08;68.33
72802;BME280;61891;55.818;37.084;2023-07-02T01:52:25;97893.72;;;17.04;68.07
72802;BME280;61891;55.818;37.084;2023-07-02T01:54:51;97891.59;;;17.06;68.58
72802;BME280;61891;55.818;37.084;2023-07-02T01:57:18;97891.19;;;17.14;67.48
72802;BME280;61891;55.818;37.084;2023-07-02T01:59:45;97902.38;;;17.11;67.70
72802;BME280;61891;55.818;37.084;2023-07-02T02:02:11;97896.22;;;17.11;68.84
72802;BME280;61891;55.818;37.084;2023-07-02T02:04:36;97896.72;;;17.07;68.26
72802;BME280;61891;55.818;37.084;2023-07-02T02:07:02;97898.00;;;17.05;68.05
72802;BME280;61891;55.818;37.084;2023-07-02T02:09:28;97900.38;;;17.01;68.06
72802;BME280;61891;55.818;37.084;2023-07-02T02:11:55;97894.13;;;16.96;68.47
72802;BME280;61891;55.818;37.084;2023-07-02T02:14:21;97901.75;;;17.04;68.59
72802;BME280;61891;55.818;37.084;2023-07-02T02:16:48;97905.06;;;17.11;68.35
72802;BME280;61891;55.818;37.084;2023-07-02T02:19:14;97900.84;;;17.15;68.78
72802;BME280;61891;55.818;37.084;2023-07-02T02:21:41;97911.28;;;17.33;68.60
72802;BME280;61891;55.818;37.084;2023-07-02T02:24:07;97908.38;;;17.35;68.38
72802;BME280;61891;55.818;37.084;2023-07-02T02:26:33;97892.53;;;17.33;68.09
72802;BME280;61891;55.818;37.084;2023-07-02T02:29:00;97921.72;;;17.52;67.49
72802;BME280;61891;55.818;37.084;2023-07-02T02:31:26;97901.59;;;17.49;68.32
72802;BME280;61891;55.818;37.084;2023-07-02T02:33:52;97915.38;;;17.58;67.82
72802;BME280;61891;55.818;37.084;2023-07-02T02:36:19;97915.47;;;17.63;67.63
72802;BME280;61891;55.818;37.084;2023-07-02T02:38:45;97925.13;;;17.64;67.87
72802;BME280;61891;55.818;37.084;2023-07-02T02:41:11;97918.69;;;17.65;68.62
72802;BME280;61891;55.818;37.084;2023-07-02T02:43:41;97875.00;;;17.43;67.44
72802;BME280;61891;55.818;37.084;2023-07-02T02:46:19;97897.69;;;17.57;67.75
72802;BME280;61891;55.818;37.084;2023-07-02T02:48:46;97916.84;;;17.65;68.04
72802;BME280;61891;55.818;37.084;2023-07-02T02:51:12;97915.06;;;17.71;68.21
72802;BME280;61891;55.818;37.084;2023-07-02T02:53:38;97914.56;;;17.74;67.80
72802;BME280;61891;55.818;37.084;2023-07-02T02:56:04;97935.41;;;17.89;67.43
72802;BME280;61891;55.818;37.084;2023-07-02T02:58:29;97914.25;;;17.70;67.87
72802;BME280;61891;55.818;37.084;2023-07-02T03:00:55;97939.38;;;17.86;67.10
72802;BME280;61891;55.818;37.084;2023-07-02T03:03:22;97916.69;;;17.72;67.84
72802;BME280;61891;55.818;37.084;2023-07-02T03:05:50;97938.00;;;17.84;67.40
72802;BME280;61891;55.818;37.084;2023-07-02T03:08:16;97951.28;;;17.95;67.80
72802;BME280;61891;55.818;37.084;2023-07-02T03:10:42;97950.31;;;18.01;68.03
72802;BME280;61891;55.818;37.084;2023-07-02T03:13:08;97948.88;;;18.16;67.85
72802;BME280;61891;55.818;37.084;2023-07-02T03:15:33;97919.75;;;18.02;67.63
72802;BME280;61891;55.818;37.084;2023-07-02T03:17:59;97921.44;;;18.09;67.57
72802;BME280;61891;55.818;37.084;2023-07-02T03:20:25;97894.75;;;17.97;67.61
72802;BME280;61891;55.818;37.084;2023-07-02T03:22:50;97941.56;;;18.33;66.70
72802;BME280;61891;55.818;37.084;2023-07-02T03:25:16;97938.94;;;18.38;66.62
72802;BME280;61891;55.818;37.084;2023-07-02T03:27:42;97956.16;;;18.42;66.43
72802;BME280;61891;55.818;37.084;2023-07-02T03:30:08;97945.47;;;18.47;67.19
72802;BME280;61891;55.818;37.084;2023-07-02T03:32:34;97950.13;;;18.57;66.96
72802;BME280;61891;55.818;37.084;2023-07-02T03:35:00;97944.25;;;18.60;66.57
72802;BME280;61891;55.818;37.084;2023-07-02T03:37:31;97946.22;;;18.64;66.41
72802;BME280;61891;55.818;37.084;2023-07-02T03:39:56;97923.78;;;18.54;65.76
72802;BME280;61891;55.818;37.084;2023-07-02T03:42:24;97912.75;;;18.50;65.99
72802;BME280;61891;55.818;37.084;2023-07-02T03:44:50;97906.88;;;18.53;66.62
72802;BME280;61891;55.818;37.084;2023-07-02T03:47:16;97948.31;;;18.89;66.12
72802;BME280;61891;55.818;37.084;2023-07-02T03:49:45;97954.13;;;19.08;65.78
72802;BME280;61891;55.818;37.084;2023-07-02T03:52:11;97949.84;;;19.12;65.96
72802;BME280;61891;55.818;37.084;2023-07-02T03:54:36;97960.97;;;19.26;65.81
72802;BME280;61891;55.818;37.084;2023-07-02T03:57:02;97944.53;;;19.17;65.46
72802;BME280;61891;55.818;37.084;2023-07-02T03:59:28;97969.34;;;19.29;65.54
72802;BME280;61891;55.818;37.084;2023-07-02T04:01:54;97923.78;;;19.08;65.38
72802;BME280;61891;55.818;37.084;2023-07-02T04:04:20;97962.38;;;19.33;64.81
72802;BME280;61891;55.818;37.084;2023-07-02T04:06:45;97965.06;;;19.33;64.97
72802;BME280;61891;55.818;37.084;2023-07-02T04:09:11;97972.66;;;19.42;64.83
72802;BME280;61891;55.818;37.084;2023-07-02T04:11:36;97971.28;;;19.39;64.84
72802;BME280;61891;55.818;37.084;2023-07-02T04:14:02;97966.72;;;19.40;64.62
72802;BME280;61891;55.818;37.084;2023-07-02T04:16:28;97931.59;;;19.14;64.42
72802;BME280;61891;55.818;37.084;2023-07-02T04:18:54;97983.81;;;19.55;64.90
72802;BME280;61891;55.818;37.084;2023-07-02T04:21:19;97983.28;;;19.58;64.25
72802;BME280;61891;55.818;37.084;2023-07-02T04:23:45;97953.34;;;19.50;63.96
72802;BME280;61891;55.818;37.084;2023-07-02T04:26:11;97978.81;;;19.74;64.48
72802;BME280;61891;55.818;37.084;2023-07-02T04:28:37;97961.63;;;19.75;63.68
72802;BME280;61891;55.818;37.084;2023-07-02T04:31:02;97959.28;;;19.94;63.85
72802;BME280;61891;55.818;37.084;2023-07-02T04:33:28;97975.28;;;20.21;63.47
72802;BME280;61891;55.818;37.084;2023-07-02T04:36:02;97969.41;;;20.29;62.47
72802;BME280;61891;55.818;37.084;2023-07-02T04:38:28;97967.00;;;20.33;62.78
72802;BME280;61891;55.818;37.084;2023-07-02T04:40:54;97976.75;;;20.44;62.45
72802;BME280;61891;55.818;37.084;2023-07-02T04:43:23;97974.91;;;20.54;62.68
72802;BME280;61891;55.818;37.084;2023-07-02T04:45:49;97982.47;;;20.63;62.76
72802;BME280;61891;55.818;37.084;2023-07-02T04:48:14;97973.31;;;20.64;62.32
72802;BME280;61891;55.818;37.084;2023-07-02T04:50:41;97858.44;;;19.91;61.89
72802;BME280;61891;55.818;37.084;2023-07-02T04:53:07;97962.50;;;20.53;61.91
72802;BME280;61891;55.818;37.084;2023-07-02T04:55:32;97974.91;;;20.65;62.02
72802;BME280;61891;55.818;37.084;2023-07-02T04:57:58;97967.38;;;20.56;61.97
72802;BME280;61891;55.818;37.084;2023-07-02T05:00:24;97978.69;;;20.58;61.59
72802;BME280;61891;55.818;37.084;2023-07-02T05:02:49;97970.56;;;20.48;61.70
72802;BME280;61891;55.818;37.084;2023-07-02T05:05:16;97988.09;;;20.56;61.50
72802;BME280;61891;55.818;37.084;2023-07-02T05:07:41;97967.88;;;20.43;61.65
72802;BME280;61891;55.818;37.084;2023-07-02T05:10:07;97978.38;;;20.50;61.42
72802;BME280;61891;55.818;37.084;2023-07-02T05:12:33;97987.00;;;20.52;61.35
72802;BME280;61891;55.818;37.084;2023-07-02T05:14:58;97981.91;;;20.55;61.20
72802;BME280;61891;55.818;37.084;2023-07-02T05:17:24;97964.13;;;20.59;60.94
72802;BME280;61891;55.818;37.084;2023-07-02T05:19:50;97987.38;;;20.81;60.69
72802;BME280;61891;55.818;37.084;2023-07-02T05:22:15;97977.44;;;20.91;60.70
72802;BME280;61891;55.818;37.084;2023-07-02T05:24:41;97980.66;;;21.04;60.49
72802;BME280;61891;55.818;37.084;2023-07-02T05:27:07;97980.13;;;21.02;60.23
72802;BME280;61891;55.818;37.084;2023-07-02T05:29:32;97985.78;;;20.95;60.53
72802;BME280;61891;55.818;37.084;2023-07-02T05:31:58;97989.53;;;20.89;59.88
72802;BME280;61891;55.818;37.084;2023-07-02T05:34:24;97994.91;;;20.84;60.24
72802;BME280;61891;55.818;37.084;2023-07-02T05:36:50;97985.50;;;20.91;59.95
72802;BME280;61891;55.818;37.084;2023-07-02T05:39:15;97985.78;;;21.05;59.87
72802;BME280;61891;55.818;37.084;2023-07-02T05:41:41;97991.47;;;21.09;59.83
72802;BME280;61891;55.818;37.084;2023-07-02T05:44:06;97999.53;;;21.19;59.81
72802;BME280;61891;55.818;37.084;2023-07-02T05:46:32;97999.84;;;21.38;59.27
72802;BME280;61891;55.818;37.084;2023-07-02T05:48:58;98003.63;;;21.37;59.03
72802;BME280;61891;55.818;37.084;2023-07-02T05:51:25;98003.09;;;21.40;58.89
72802;BME280;61891;55.818;37.084;2023-07-02T05:53:52;97992.28;;;21.50;58.65
72802;BME280;61891;55.818;37.084;2023-07-02T05:56:18;97985.56;;;21.52;58.50
72802;BME280;61891;55.818;37.084;2023-07-02T05:58:45;97982.03;;;21.57;58.54
72802;BME280;61891;55.818;37.084;2023-07-02T06:01:12;97976.09;;;21.70;58.04
72802;BME280;61891;55.818;37.084;2023-07-02T06:03:38;98006.28;;;21.82;57.96
72802;BME280;61891;55.818;37.084;2023-07-02T06:06:04;97996.59;;;21.61;57.74
72802;BME280;61891;55.818;37.084;2023-07-02T06:08:30;97975.56;;;21.48;58.16
72802;BME280;61891;55.818;37.084;2023-07-02T06:10:56;98000.91;;;21.72;57.95
72802;BME280;61891;55.818;37.084;2023-07-02T06:13:21;98002.50;;;21.83;58.41
72802;BME280;61891;55.818;37.084;2023-07-02T06:15:47;97995.47;;;21.93;57.08
72802;BME280;61891;55.818;37.084;2023-07-02T06:18:13;98000.31;;;22.01;57.32
72802;BME280;61891;55.818;37.084;2023-07-02T06:20:39;97992.19;;;22.11;57.27
72802;BME280;61891;55.818;37.084;2023-07-02T06:23:05;97998.63;;;22.25;56.02
72802;BME280;61891;55.818;37.084;2023-07-02T06:25:30;98005.84;;;22.45;56.49
72802;BME280;61891;55.818;37.084;2023-07-02T06:28:00;98006.91;;;22.49;56.11
72802;BME280;61891;55.818;37.084;2023-07-02T06:30:26;98000.44;;;22.45;56.36
72802;BME280;61891;55.818;37.084;2023-07-02T06:32:53;98004.97;;;22.55;56.20
72802;BME280;61891;55.818;37.084;2023-07-02T06:35:19;97995.28;;;22.54;55.36
72802;BME280;61891;55.818;37.084;2023-07-02T06:37:45;98005.97;;;22.74;55.13
72802;BME280;61891;55.818;37.084;2023-07-02T06:40:11;98007.84;;;22.83;54.33
72802;BME280;61891;55.818;37.084;2023-07-02T06:42:37;98002.72;;;22.82;54.17
72802;BME280;61891;55.818;37.084;2023-07-02T06:45:04;98010.69;;;23.02;54.26
72802;BME280;61891;55.818;37.084;2023-07-02T06:47:32;98014.88;;;23.24;53.68
72802;BME280;61891;55.818;37.084;2023-07-02T06:49:58;97999.91;;;23.36;52.98
72802;BME280;61891;55.818;37.084;2023-07-02T06:52:28;97995.16;;;23.52;52.24
72802;BME280;61891;55.818;37.084;2023-07-02T06:54:53;98024.34;;;23.60;52.46
72802;BME280;61891;55.818;37.084;2023-07-02T06:57:20;97998.28;;;23.35;52.52
72802;BME280;61891;55.818;37.084;2023-07-02T06:59:49;97995.50;;;23.11;52.54
72802;BME280;61891;55.818;37.084;2023-07-02T07:02:18;98010.41;;;23.04;52.16
72802;BME280;61891;55.818;37.084;2023-07-02T07:04:44;98027.75;;;22.98;52.40
72802;BME280;61891;55.818;37.084;2023-07-02T07:07:09;98028.63;;;22.88;52.02
72802;BME280;61891;55.818;37.084;2023-07-02T07:09:35;98006.81;;;22.69;52.17
72802;BME280;61891;55.818;37.084;2023-07-02T07:12:01;98028.03;;;22.96;52.49
72802;BME280;61891;55.818;37.084;2023-07-02T07:14:27;98036.06;;;23.06;51.59
72802;BME280;61891;55.818;37.084;2023-07-02T07:16:52;98029.47;;;23.23;51.39
72802;BME280;61891;55.818;37.084;2023-07-02T07:19:18;98028.28;;;23.39;51.68
72802;BME280;61891;55.818;37.084;2023-07-02T07:21:47;98031.94;;;23.53;50.01
72802;BME280;61891;55.818;37.084;2023-07-02T07:24:13;98031.84;;;23.68;49.93
72802;BME280;61891;55.818;37.084;2023-07-02T07:26:39;98025.28;;;23.74;49.59
72802;BME280;61891;55.818;37.084;2023-07-02T07:29:04;98032.06;;;23.72;50.21
72802;BME280;61891;55.818;37.084;2023-07-02T07:31:32;98026.03;;;23.80;49.68
72802;BME280;61891;55.818;37.084;2023-07-02T07:33:58;98036.44;;;23.97;49.63
72802;BME280;61891;55.818;37.084;2023-07-02T07:36:24;98032.53;;;24.08;49.03
72802;BME280;61891;55.818;37.084;2023-07-02T07:38:50;97998.06;;;23.90;48.42
72802;BME280;61891;55.818;37.084;2023-07-02T07:41:16;98035.00;;;24.33;48.39
72802;BME280;61891;55.818;37.084;2023-07-02T07:43:42;98018.50;;;24.54;48.50
72802;BME280;61891;55.818;37.084;2023-07-02T07:46:08;98037.31;;;24.64;48.18
72802;BME280;61891;55.818;37.084;2023-07-02T07:48:33;98024.22;;;24.28;47.46
72802;BME280;61891;55.818;37.084;2023-07-02T07:50:59;98045.53;;;24.35;47.50
72802;BME280;61891;55.818;37.084;2023-07-02T07:53:25;98030.28;;;24.15;47.33
72802;BME280;61891;55.818;37.084;2023-07-02T07:55:56;98034.19;;;24.04;47.40
72802;BME280;61891;55.818;37.084;2023-07-02T07:58:24;98029.25;;;24.11;47.36
72802;BME280;61891;55.818;37.084;2023-07-02T08:00:50;98010.13;;;24.02;47.80
72802;BME280;61891;55.818;37.084;2023-07-02T08:03:16;98032.00;;;24.06;47.94
72802;BME280;61891;55.818;37.084;2023-07-02T08:05:41;97996.00;;;24.05;47.58
72802;BME280;61891;55.818;37.084;2023-07-02T08:08:07;98028.06;;;24.46;47.45
72802;BME280;61891;55.818;37.084;2023-07-02T08:10:34;98010.25;;;24.40;47.29
72802;BME280;61891;55.818;37.084;2023-07-02T08:12:59;98019.34;;;24.25;47.02
72802;BME280;61891;55.818;37.084;2023-07-02T08:15:25;98031.28;;;24.48;46.20
72802;BME280;61891;55.818;37.084;2023-07-02T08:17:51;98022.03;;;24.73;46.03
72802;BME280;61891;55.818;37.084;2023-07-02T08:20:20;98031.31;;;25.10;46.03
72802;BME280;61891;55.818;37.084;2023-07-02T08:22:45;98037.75;;;25.32;45.24
72802;BME280;61891;55.818;37.084;2023-07-02T08:25:11;98030.38;;;25.52;44.92
72802;BME280;61891;55.818;37.084;2023-07-02T08:27:37;98033.16;;;25.65;44.14
72802;BME280;61891;55.818;37.084;2023-07-02T08:30:03;98027.91;;;25.36;43.90
72802;BME280;61891;55.818;37.084;2023-07-02T08:32:31;98030.38;;;25.52;44.14
72802;BME280;61891;55.818;37.084;2023-07-02T08:34:58;98031.38;;;25.75;43.93
72802;BME280;61891;55.818;37.084;2023-07-02T08:37:24;98031.13;;;25.90;43.24
72802;BME280;61891;55.818;37.084;2023-07-02T08:39:49;98032.09;;;25.80;43.09
72802;BME280;61891;55.818;37.084;2023-07-02T08:42:16;98038.81;;;25.69;43.36
72802;BME280;61891;55.818;37.084;2023-07-02T08:44:45;98026.69;;;25.61;41.96
72802;BME280;61891;55.818;37.084;2023-07-02T08:47:12;98033.50;;;25.78;42.39
72802;BME280;61891;55.818;37.084;2023-07-02T08:49:39;98028.50;;;25.85;42.88
72802;BME280;61891;55.818;37.084;2023-07-02T08:52:05;98038.75;;;25.88;42.55
72802;BME280;61891;55.818;37.084;2023-07-02T08:54:31;98061.03;;;26.04;42.45
72802;BME280;61891;55.818;37.084;2023-07-02T08:56:57;98037.06;;;26.38;41.56
72802;BME280;61891;55.818;37.084;2023-07-02T08:59:23;98041.44;;;26.75;41.15
72802;BME280;61891;55.818;37.084;2023-07-02T09:01:51;98017.88;;;26.84;40.57
72802;BME280;61891;55.818;37.084;2023-07-02T09:06:43;98050.72;;;27.60;40.20
72802;BME280;61891;55.818;37.084;2023-07-02T09:09:09;98055.63;;;27.36;39.94
72802;BME280;61891;55.818;37.084;2023-07-02T09:11:35;98046.81;;;27.16;39.59
72802;BME280;61891;55.818;37.084;2023-07-02T09:14:11;98049.13;;;27.23;39.63
72802;BME280;61891;55.818;37.084;2023-07-02T09:16:37;98038.06;;;26.56;39.40
72802;BME280;61891;55.818;37.084;2023-07-02T09:19:07;98054.72;;;26.08;39.66
72802;BME280;61891;55.818;37.084;2023-07-02T09:24:17;98061.28;;;25.88;40.30
72802;BME280;61891;55.818;37.084;2023-07-02T09:26:51;98064.03;;;26.62;38.74
72802;BME280;61891;55.818;37.084;2023-07-02T09:31:56;98059.75;;;27.69;37.88
72802;BME280;61891;55.818;37.084;2023-07-02T09:34:30;98058.31;;;27.72;37.67
72802;BME280;61891;55.818;37.084;2023-07-02T09:36:57;98057.66;;;27.66;37.64
72802;BME280;61891;55.818;37.084;2023-07-02T09:39:27;98055.44;;;27.99;37.17
72802;BME280;61891;55.818;37.084;2023-07-02T09:41:55;98049.50;;;27.97;36.77
72802;BME280;61891;55.818;37.084;2023-07-02T09:44:26;98037.78;;;27.66;36.75
72802;BME280;61891;55.818;37.084;2023-07-02T09:46:58;98047.91;;;27.29;36.75
72802;BME280;61891;55.818;37.084;2023-07-02T09:49:26;98048.25;;;27.14;37.30
72802;BME280;61891;55.818;37.084;2023-07-02T09:51:53;98045.97;;;27.52;37.46
72802;BME280;61891;55.818;37.084;2023-07-02T09:54:19;98013.91;;;28.24;37.00
72802;BME280;61891;55.818;37.084;2023-07-02T09:56:46;98035.13;;;29.02;35.61
72802;BME280;61891;55.818;37.084;2023-07-02T09:59:13;98056.50;;;29.08;34.64
72802;BME280;61891;55.818;37.084;2023-07-02T10:01:39;98038.97;;;29.01;34.44
72802;BME280;61891;55.818;37.084;2023-07-02T10:04:16;98045.91;;;29.41;34.51
72802;BME280;61891;55.818;37.084;2023-07-02T10:06:48;98032.25;;;29.41;33.61
72802;BME280;61891;55.818;37.084;2023-07-02T10:09:15;98029.31;;;29.81;33.03
72802;BME280;61891;55.818;37.084;2023-07-02T10:11:41;98045.91;;;30.31;32.05
72802;BME280;61891;55.818;37.084;2023-07-02T10:14:07;98029.13;;;30.41;31.48
72802;BME280;61891;55.818;37.084;2023-07-02T10:16:32;98040.72;;;30.76;30.81
72802;BME280;61891;55.818;37.084;2023-07-02T10:19:11;98029.97;;;31.13;31.04
72802;BME280;61891;55.818;37.084;2023-07-02T10:21:38;98034.88;;;31.49;30.15
72802;BME280;61891;55.818;37.084;2023-07-02T10:24:13;98037.31;;;31.00;29.06
72802;BME280;61891;55.818;37.084;2023-07-02T10:27:00;98041.59;;;31.10;28.96
72802;BME280;61891;55.818;37.084;2023-07-02T10:29:28;98042.31;;;31.49;28.88
72802;BME280;61891;55.818;37.084;2023-07-02T10:31:55;97943.59;;;30.83;28.34
72802;BME280;61891;55.818;37.084;2023-07-02T10:34:29;97987.38;;;30.83;29.14
72802;BME280;61891;55.818;37.084;2023-07-02T10:36:55;98044.28;;;31.81;28.15
72802;BME280;61891;55.818;37.084;2023-07-02T10:39:21;98037.44;;;32.45;27.70
72802;BME280;61891;55.818;37.084;2023-07-02T10:41:46;98047.78;;;32.15;28.20
72802;BME280;61891;55.818;37.084;2023-07-02T10:44:12;98048.72;;;31.53;28.68
72802;BME280;61891;55.818;37.084;2023-07-02T10:46:57;98024.09;;;31.02;29.21
72802;BME280;61891;55.818;37.084;2023-07-02T10:49:30;98026.25;;;31.92;28.04
72802;BME280;61891;55.818;37.084;2023-07-02T10:52:00;98006.91;;;32.58;26.67
72802;BME280;61891;55.818;37.084;2023-07-02T10:54:37;98062.19;;;33.21;26.00
72802;BME280;61891;55.818;37.084;2023-07-02T10:57:05;98051.34;;;33.53;25.57
72802;BME280;61891;55.818;37.084;2023-07-02T10:59:31;98051.75;;;33.67;24.78
72802;BME280;61891;55.818;37.084;2023-07-02T11:01:56;98085.16;;;33.81;24.35
72802;BME280;61891;55.818;37.084;2023-07-02T11:04:28;98059.69;;;33.56;23.89
72802;BME280;61891;55.818;37.084;2023-07-02T11:06:55;98044.66;;;33.66;23.61
72802;BME280;61891;55.818;37.084;2023-07-02T11:09:20;98055.19;;;33.64;23.49
72802;BME280;61891;55.818;37.084;2023-07-02T11:11:54;98022.81;;;32.77;24.81
72802;BME280;61891;55.818;37.084;2023-07-02T11:14:32;98048.16;;;31.59;26.32
72802;BME280;61891;55.818;37.084;2023-07-02T11:16:59;98052.03;;;30.66;27.53
72802;BME280;61891;55.818;37.084;2023-07-02T11:19:27;98052.97;;;29.60;28.13
72802;BME280;61891;55.818;37.084;2023-07-02T11:21:55;98060.66;;;30.39;27.54
72802;BME280;61891;55.818;37.084;2023-07-02T11:24:30;98059.03;;;31.35;26.38
72802;BME280;61891;55.818;37.084;2023-07-02T11:26:56;98066.28;;;32.18;26.18
72802;BME280;61891;55.818;37.084;2023-07-02T11:29:23;98059.78;;;32.22;25.59
72802;BME280;61891;55.818;37.084;2023-07-02T11:31:48;98044.84;;;33.45;24.89
72802;BME280;61891;55.818;37.084;2023-07-02T11:34:18;98057.53;;;34.69;23.66
72802;BME280;61891;55.818;37.084;2023-07-02T11:36:45;98067.34;;;35.75;23.49
72802;BME280;61891;55.818;37.084;2023-07-02T11:39:10;98075.19;;;36.57;22.60
72802;BME280;61891;55.818;37.084;2023-07-02T11:41:43;98062.50;;;36.30;20.65
72802;BME280;61891;55.818;37.084;2023-07-02T11:44:09;98065.69;;;36.77;20.69
72802;BME280;61891;55.818;37.084;2023-07-02T11:46:35;98067.00;;;36.18;21.19
72802;BME280;61891;55.818;37.084;2023-07-02T11:49:02;98066.31;;;36.25;20.67
72802;BME280;61891;55.818;37.084;2023-07-02T11:51:32;98055.75;;;34.13;21.79
72802;BME280;61891;55.818;37.084;2023-07-02T11:53:58;98069.44;;;34.73;21.87
72802;BME280;61891;55.818;37.084;2023-07-02T11:56:24;98059.53;;;35.58;20.88
72802;BME280;61891;55.818;37.084;2023-07-02T11:58:49;98034.25;;;36.17;20.58
72802;BME280;61891;55.818;37.084;2023-07-02T12:01:16;98076.72;;;37.04;20.29
72802;BME280;61891;55.818;37.084;2023-07-02T12:03:44;98061.88;;;37.16;19.50
72802;BME280;61891;55.818;37.084;2023-07-02T12:06:10;98048.69;;;37.65;20.33
72802;BME280;61891;55.818;37.084;2023-07-02T12:08:36;98069.22;;;37.98;20.06
72802;BME280;61891;55.818;37.084;2023-07-02T12:11:02;98070.19;;;36.21;21.06
72802;BME280;61891;55.818;37.084;2023-07-02T12:13:27;98060.16;;;36.55;21.06
72802;BME280;61891;55.818;37.084;2023-07-02T12:15:53;98065.94;;;36.95;20.42
72802;BME280;61891;55.818;37.084;2023-07-02T12:18:19;98057.69;;;37.25;20.90
72802;BME280;61891;55.818;37.084;2023-07-02T12:20:45;98073.88;;;37.57;20.76
72802;BME280;61891;55.818;37.084;2023-07-02T12:23:14;98064.88;;;35.50;20.99
72802;BME280;61891;55.818;37.084;2023-07-02T12:25:39;98061.47;;;33.37;21.99
72802;BME280;61891;55.818;37.084;2023-07-02T12:28:05;98060.03;;;34.42;22.11
72802;BME280;61891;55.818;37.084;2023-07-02T12:30:32;98067.78;;;35.77;21.71
72802;BME280;61891;55.818;37.084;2023-07-02T12:32:58;98069.97;;;35.68;21.92
72802;BME280;61891;55.818;37.084;2023-07-02T12:35:24;98063.63;;;33.71;22.46
72802;BME280;61891;55.818;37.084;2023-07-02T12:37:51;98069.78;;;32.39;23.18
72802;BME280;61891;55.818;37.084;2023-07-02T12:40:18;98058.47;;;32.89;23.31
72802;BME280;61891;55.818;37.084;2023-07-02T12:42:45;98067.47;;;34.73;22.00
72802;BME280;61891;55.818;37.084;2023-07-02T12:45:11;98072.78;;;35.33;21.53
72802;BME280;61891;55.818;37.084;2023-07-02T12:47:39;98074.09;;;33.93;22.85
72802;BME280;61891;55.818;37.084;2023-07-02T12:50:06;98062.56;;;32.71;23.29
72802;BME280;61891;55.818;37.084;2023-07-02T12:52:32;98075.25;;;33.12;23.18
72802;BME280;61891;55.818;37.084;2023-07-02T12:54:58;98073.81;;;34.42;22.42
72802;BME280;61891;55.818;37.084;2023-07-02T12:57:24;98073.22;;;35.54;22.10